Time,TemperatureF,DewpointF,PressureIn,WindDirection,WindDirectionDegrees,WindSpeedMPH,WindSpeedGustMPH,Humidity,HourlyPrecipIn,Conditions,Clouds,dailyrainin,SoftwareType,DateUTC
2013-04-03 00:13:00,34.0,33.7,30.01,WSW,247,4.7,-999.0,99,-99.99,,,0.00,Acu-Link.com,2013-04-03 04:13:00,
2013-04-03 00:29:00,34.0,33.7,30.02,WSW,247,4.7,-999.0,99,-99.99,,,0.00,Acu-Link.com,2013-04-03 04:29:00,
2013-04-03 00:44:00,34.0,33.7,30.02,WSW,247,4.7,-999.0,99,-99.99,,,0.00,Acu-Link.com,2013-04-03 04:44:00,
2013-04-03 00:59:00,34.0,33.7,30.03,West,270,4.7,-999.0,99,-99.99,,,0.00,Acu-Link.com,2013-04-03 04:59:00,
2013-04-03 01:14:00,33.4,33.2,30.03,WNW,292,2.7,-999.0,99,-99.99,,,0.00,Acu-Link.com,2013-04-03 05:14:00,
2013-04-03 01:29:00,33.1,32.8,30.03,West,270,7.4,-999.0,99,-99.99,,,0.00,Acu-Link.com,2013-04-03 05:29:00,
2013-04-03 01:45:00,32.9,32.7,30.03,WSW,247,5.8,-999.0,99,-99.99,,,0.00,Acu-Link.com,2013-04-03 05:45:00,
2013-04-03 02:00:00,32.7,32.5,30.03,West,270,5.1,-999.0,99,-99.99,,,0.00,Acu-Link.com,2013-04-03 06:00:00,
2013-04-03 02:15:00,32.7,32.5,30.03,West,270,5.1,-999.0,99,-99.99,,,0.00,Acu-Link.com,2013-04-03 06:15:00,
2013-04-03 02:30:00,32.0,31.8,30.02,WSW,247,4.7,-999.0,99,-99.99,,,0.00,Acu-Link.com,2013-04-03 06:30:00,
2013-04-03 02:45:00,31.8,31.6,30.03,SW,225,3.8,-999.0,99,-99.99,,,0.00,Acu-Link.com,2013-04-03 06:45:00,
2013-04-03 03:01:00,31.8,31.6,30.02,SW,225,3.8,-999.0,99,-99.99,,,0.00,Acu-Link.com,2013-04-03 07:01:00,
2013-04-03 03:16:00,31.8,31.6,30.02,SW,225,3.8,-999.0,99,-99.99,,,0.00,Acu-Link.com,2013-04-03 07:16:00,
2013-04-03 03:31:00,31.8,31.6,30.02,SW,225,3.8,-999.0,99,-99.99,,,0.00,Acu-Link.com,2013-04-03 07:31:00,
2013-04-03 03:46:00,31.8,31.6,30.02,SW,225,3.8,-999.0,99,-99.99,,,0.00,Acu-Link.com,2013-04-03 07:46:00,
2013-04-03 04:02:00,31.3,31.0,30.03,West,270,4.7,-999.0,99,-99.99,,,0.00,Acu-Link.com,2013-04-03 08:02:00,
2013-04-03 04:17:00,31.1,30.9,30.03,NNE,22,4.7,-999.0,99,-99.99,,,0.00,Acu-Link.com,2013-04-03 08:17:00,
2013-04-03 04:32:00,31.1,30.9,30.03,West,270,4.7,-999.0,99,-99.99,,,0.00,Acu-Link.com,2013-04-03 08:32:00,
2013-04-03 04:48:00,30.9,30.7,30.03,West,270,5.8,-999.0,99,-99.99,,,0.00,Acu-Link.com,2013-04-03 08:48:00,
2013-04-03 05:18:00,30.7,30.5,30.03,WSW,247,9.8,-999.0,99,-99.99,,,0.00,Acu-Link.com,2013-04-03 09:18:00,
2013-04-03 05:33:00,30.7,30.5,30.03,WSW,247,5.8,-999.0,99,-99.99,,,0.00,Acu-Link.com,2013-04-03 09:33:00,
2013-04-03 05:48:00,30.4,30.1,30.04,SSW,202,8.9,-999.0,99,-99.99,,,0.00,Acu-Link.com,2013-04-03 09:48:00,
2013-04-03 06:04:00,30.4,30.1,30.05,NNW,337,6.3,-999.0,99,-99.99,,,0.00,Acu-Link.com,2013-04-03 10:04:00,
2013-04-03 06:19:00,30.0,29.8,30.05,WNW,292,3.8,-999.0,99,-99.99,,,0.00,Acu-Link.com,2013-04-03 10:19:00,
2013-04-03 06:34:00,29.7,29.4,30.06,West,270,4.7,-999.0,99,-99.99,,,0.00,Acu-Link.com,2013-04-03 10:34:00,
2013-04-03 06:49:00,29.7,29.4,30.07,West,270,5.8,-999.0,99,-99.99,,,0.00,Acu-Link.com,2013-04-03 10:49:00,
2013-04-03 07:04:00,29.8,29.6,30.08,West,270,3.8,-999.0,99,-99.99,,,0.00,Acu-Link.com,2013-04-03 11:04:00,
2013-04-03 07:20:00,31.5,31.2,30.08,West,270,4.3,-999.0,99,-99.99,,,0.00,Acu-Link.com,2013-04-03 11:20:00,
2013-04-03 07:35:00,31.8,31.6,30.08,West,270,8.9,-999.0,99,-99.99,,,0.00,Acu-Link.com,2013-04-03 11:35:00,
2013-04-03 07:50:00,32.2,31.9,30.09,WSW,247,9.8,-999.0,99,-99.99,,,0.00,Acu-Link.com,2013-04-03 11:50:00,
2013-04-03 08:05:00,32.7,32.5,30.09,WSW,247,5.8,-999.0,99,-99.99,,,0.00,Acu-Link.com,2013-04-03 12:05:00,
2013-04-03 08:20:00,33.6,33.4,30.09,WSW,247,10.3,-999.0,99,-99.99,,,0.00,Acu-Link.com,2013-04-03 12:20:00,
2013-04-03 08:36:00,34.2,33.9,30.09,WSW,247,6.7,-999.0,99,-99.99,,,0.00,Acu-Link.com,2013-04-03 12:36:00,
2013-04-03 08:51:00,35.1,34.8,30.09,SW,225,9.4,-999.0,99,-99.99,,,0.00,Acu-Link.com,2013-04-03 12:51:00,
2013-04-03 09:06:00,34.7,34.4,30.08,West,270,8.3,-999.0,99,-99.99,,,0.00,Acu-Link.com,2013-04-03 13:06:00,
2013-04-03 09:21:00,36.5,36.2,30.08,SSW,202,11.0,-999.0,99,-99.99,,,0.00,Acu-Link.com,2013-04-03 13:21:00,
2013-04-03 09:52:00,37.8,37.5,30.08,West,270,13.0,-999.0,99,-99.99,,,0.00,Acu-Link.com,2013-04-03 13:52:00,
2013-04-03 10:07:00,39.2,38.9,30.08,NE,45,8.9,-999.0,99,-99.99,,,0.00,Acu-Link.com,2013-04-03 14:07:00,
2013-04-03 10:22:00,39.6,39.3,30.07,West,270,7.8,-999.0,99,-99.99,,,0.00,Acu-Link.com,2013-04-03 14:22:00,
2013-04-03 10:37:00,39.6,39.3,30.07,WSW,247,11.4,-999.0,99,-99.99,,,0.00,Acu-Link.com,2013-04-03 14:37:00,
2013-04-03 10:53:00,40.1,39.8,30.07,West,270,14.1,-999.0,99,-99.99,,,0.00,Acu-Link.com,2013-04-03 14:53:00,
2013-04-03 11:08:00,42.3,42.0,30.07,West,270,11.0,-999.0,99,-99.99,,,0.00,Acu-Link.com,2013-04-03 15:08:00,
2013-04-03 11:23:00,42.1,41.8,30.06,West,270,11.0,-999.0,99,-99.99,,,0.00,Acu-Link.com,2013-04-03 15:23:00,
2013-04-03 11:38:00,43.0,42.7,30.06,WSW,247,13.4,-999.0,99,-99.99,,,0.00,Acu-Link.com,2013-04-03 15:38:00,
2013-04-03 12:09:00,43.3,43.1,30.06,West,270,11.9,-999.0,99,-99.99,,,0.00,Acu-Link.com,2013-04-03 16:09:00,
2013-04-03 12:39:00,44.2,44.0,30.06,ENE,67,6.7,-999.0,99,-99.99,,,0.00,Acu-Link.com,2013-04-03 16:39:00,
2013-04-03 12:54:00,44.2,44.0,30.06,NW,315,9.8,-999.0,99,-99.99,,,0.00,Acu-Link.com,2013-04-03 16:54:00,
2013-04-03 13:25:00,46.2,46.0,30.05,West,270,15.0,-999.0,99,-99.99,,,0.00,Acu-Link.com,2013-04-03 17:25:00,
2013-04-03 13:40:00,45.7,45.4,30.05,WNW,292,10.3,-999.0,99,-99.99,,,0.00,Acu-Link.com,2013-04-03 17:40:00,
2013-04-03 13:55:00,45.5,45.2,30.05,WNW,292,8.9,-999.0,99,-99.99,,,0.00,Acu-Link.com,2013-04-03 17:55:00,
2013-04-03 14:10:00,46.9,46.7,30.05,West,270,11.0,-999.0,99,-99.99,,,0.00,Acu-Link.com,2013-04-03 18:10:00,
2013-04-03 14:25:00,46.9,46.7,30.04,West,270,10.3,-999.0,99,-99.99,,,0.00,Acu-Link.com,2013-04-03 18:25:00,
2013-04-03 14:41:00,46.9,46.7,30.03,NW,315,9.4,-999.0,99,-99.99,,,0.00,Acu-Link.com,2013-04-03 18:41:00,
2013-04-03 15:26:00,47.5,47.2,30.02,North,0,5.8,-999.0,99,-99.99,,,0.00,Acu-Link.com,2013-04-03 19:26:00,
2013-04-03 15:42:00,47.5,47.2,30.03,West,270,11.0,-999.0,99,-99.99,,,0.00,Acu-Link.com,2013-04-03 19:42:00,
2013-04-03 15:57:00,46.9,46.7,30.02,SW,225,5.1,-999.0,99,-99.99,,,0.00,Acu-Link.com,2013-04-03 19:57:00,
2013-04-03 16:12:00,47.3,47.0,30.02,West,270,11.9,-999.0,99,-99.99,,,0.00,Acu-Link.com,2013-04-03 20:12:00,
2013-04-03 16:27:00,46.6,46.3,30.03,SW,225,4.7,-999.0,99,-99.99,,,0.00,Acu-Link.com,2013-04-03 20:27:00,
2013-04-03 16:42:00,46.4,46.1,30.02,SW,225,9.8,-999.0,99,-99.99,,,0.00,Acu-Link.com,2013-04-03 20:42:00,
2013-04-03 16:58:00,46.6,46.3,30.03,NW,315,9.4,-999.0,99,-99.99,,,0.00,Acu-Link.com,2013-04-03 20:58:00,
2013-04-03 17:13:00,46.6,46.3,30.03,WNW,292,7.4,-999.0,99,-99.99,,,0.00,Acu-Link.com,2013-04-03 21:13:00,
2013-04-03 17:28:00,45.7,45.4,30.04,WNW,292,9.4,-999.0,99,-99.99,,,0.00,Acu-Link.com,2013-04-03 21:28:00,
2013-04-03 17:43:00,45.3,45.1,30.04,North,0,11.4,-999.0,99,-99.99,,,0.00,Acu-Link.com,2013-04-03 21:43:00,
2013-04-03 18:14:00,44.8,44.5,30.06,WSW,247,12.5,-999.0,99,-99.99,,,0.00,Acu-Link.com,2013-04-03 22:14:00,
2013-04-03 18:29:00,43.7,43.4,30.07,WSW,247,7.4,-999.0,99,-99.99,,,0.00,Acu-Link.com,2013-04-03 22:29:00,
2013-04-03 18:44:00,42.8,42.5,30.08,West,270,5.1,-999.0,99,-99.99,,,0.00,Acu-Link.com,2013-04-03 22:44:00,
2013-04-03 18:59:00,41.7,41.5,30.09,SW,225,5.1,-999.0,99,-99.99,,,0.00,Acu-Link.com,2013-04-03 22:59:00,
2013-04-03 19:15:00,40.8,40.6,30.10,WSW,247,12.5,-999.0,99,-99.99,,,0.00,Acu-Link.com,2013-04-03 23:15:00,
2013-04-03 19:30:00,40.3,40.0,30.10,NW,315,11.4,-999.0,99,-99.99,,,0.00,Acu-Link.com,2013-04-03 23:30:00,
2013-04-03 19:45:00,39.7,39.5,30.11,SW,225,9.4,-999.0,99,-99.99,,,0.00,Acu-Link.com,2013-04-03 23:45:00,
2013-04-03 20:00:00,39.4,39.1,30.12,SW,225,5.8,-999.0,99,-99.99,,,0.00,Acu-Link.com,2013-04-04 00:00:00,
2013-04-03 20:15:00,38.7,38.4,30.14,SSW,202,6.3,-999.0,99,-99.99,,,0.00,Acu-Link.com,2013-04-04 00:15:00,
2013-04-03 20:31:00,38.1,37.9,30.15,NNW,337,4.7,-999.0,99,-99.99,,,0.00,Acu-Link.com,2013-04-04 00:31:00,
2013-04-03 21:01:00,37.4,37.1,30.16,WNW,292,9.4,-999.0,99,-99.99,,,0.00,Acu-Link.com,2013-04-04 01:01:00,
2013-04-03 21:16:00,37.0,36.8,30.18,NNW,337,5.8,-999.0,99,-99.99,,,0.00,Acu-Link.com,2013-04-04 01:16:00,
2013-04-03 21:31:00,36.5,36.2,30.18,ESE,112,5.1,-999.0,99,-99.99,,,0.00,Acu-Link.com,2013-04-04 01:31:00,
2013-04-03 21:47:00,36.5,36.2,30.19,SW,225,9.8,-999.0,99,-99.99,,,0.00,Acu-Link.com,2013-04-04 01:47:00,
2013-04-03 22:02:00,36.1,35.9,30.20,NW,315,7.8,-999.0,99,-99.99,,,0.00,Acu-Link.com,2013-04-04 02:02:00,
2013-04-03 22:17:00,35.8,35.5,30.20,WNW,292,7.4,-999.0,99,-99.99,,,0.00,Acu-Link.com,2013-04-04 02:17:00,
2013-04-03 22:32:00,35.2,35.0,30.20,SW,225,4.3,-999.0,99,-99.99,,,0.00,Acu-Link.com,2013-04-04 02:32:00,
2013-04-03 22:48:00,34.7,34.4,30.21,SSW,202,6.3,-999.0,99,-99.99,,,0.00,Acu-Link.com,2013-04-04 02:48:00,
2013-04-03 23:03:00,34.5,34.3,30.22,West,270,4.7,-999.0,99,-99.99,,,0.00,Acu-Link.com,2013-04-04 03:03:00,
2013-04-03 23:18:00,34.5,34.3,30.22,NW,315,7.8,-999.0,99,-99.99,,,0.00,Acu-Link.com,2013-04-04 03:18:00,
2013-04-03 23:33:00,34.3,34.1,30.23,East,90,7.4,-999.0,99,-99.99,,,0.00,Acu-Link.com,2013-04-04 03:33:00,